sensor_id;sensor_type;location;lat;lon;timestamp;temperature;humidity
9820;DHT22;4949;48.482;9.206;2023-02-05T00:04:59;3.70;80.50
9820;DHT22;4949;48.482;9.206;2023-02-05T00:10:00;3.70;80.60
9820;DHT22;4949;48.482;9.206;2023-02-05T00:15:04;3.70;80.40
9820;DHT22;4949;48.482;9.206;2023-02-05T00:20:06;3.60;80.60
9820;DHT22;4949;48.482;9.206;2023-02-05T00:25:08;3.60;81.20
9820;DHT22;4949;48.482;9.206;2023-02-05T00:30:11;3.50;80.80
9820;DHT22;4949;48.482;9.206;2023-02-05T00:35:15;3.40;81.00
9820;DHT22;4949;48.482;9.206;2023-02-05T00:40:18;3.40;80.80
9820;DHT22;4949;48.482;9.206;2023-02-05T00:45:19;3.40;81.00
9820;DHT22;4949;48.482;9.206;2023-02-05T00:50:23;3.30;80.90
9820;DHT22;4949;48.482;9.206;2023-02-05T00:55:26;3.40;81.10
9820;DHT22;4949;48.482;9.206;2023-02-05T01:00:29;3.40;81.00
9820;DHT22;4949;48.482;9.206;2023-02-05T01:05:36;3.40;81.10
9820;DHT22;4949;48.482;9.206;2023-02-05T01:10:41;3.50;81.30
9820;DHT22;4949;48.482;9.206;2023-02-05T01:15:43;3.50;81.10
9820;DHT22;4949;48.482;9.206;2023-02-05T01:20:44;3.50;81.40
9820;DHT22;4949;48.482;9.206;2023-02-05T01:25:45;3.60;80.90
9820;DHT22;4949;48.482;9.206;2023-02-05T01:30:49;3.60;80.80
9820;DHT22;4949;48.482;9.206;2023-02-05T01:35:53;3.60;81.10
9820;DHT22;4949;48.482;9.206;2023-02-05T01:40:53;3.50;81.20
9820;DHT22;4949;48.482;9.206;2023-02-05T01:51:05;3.50;81.20
9820;DHT22;4949;48.482;9.206;2023-02-05T01:56:28;3.60;81.30
9820;DHT22;4949;48.482;9.206;2023-02-05T02:01:32;3.50;81.20
9820;DHT22;4949;48.482;9.206;2023-02-05T02:06:34;3.50;81.10
9820;DHT22;4949;48.482;9.206;2023-02-05T02:11:42;3.50;81.20
9820;DHT22;4949;48.482;9.206;2023-02-05T02:16:45;3.50;81.40
9820;DHT22;4949;48.482;9.206;2023-02-05T02:22:11;3.50;81.20
9820;DHT22;4949;48.482;9.206;2023-02-05T02:33:02;3.50;81.20
9820;DHT22;4949;48.482;9.206;2023-02-05T02:43:57;3.40;81.10
9820;DHT22;4949;48.482;9.206;2023-02-05T02:49:05;3.40;81.20
9820;DHT22;4949;48.482;9.206;2023-02-05T02:54:09;3.50;81.50
9820;DHT22;4949;48.482;9.206;2023-02-05T02:59:17;3.40;81.50
9820;DHT22;4949;48.482;9.206;2023-02-05T03:04:24;3.40;81.60
9820;DHT22;4949;48.482;9.206;2023-02-05T03:09:33;3.30;81.70
9820;DHT22;4949;48.482;9.206;2023-02-05T03:14:42;3.30;81.80
9820;DHT22;4949;48.482;9.206;2023-02-05T03:19:49;3.40;82.10
9820;DHT22;4949;48.482;9.206;2023-02-05T03:24:57;3.40;81.70
9820;DHT22;4949;48.482;9.206;2023-02-05T03:29:58;3.40;82.00
9820;DHT22;4949;48.482;9.206;2023-02-05T03:35:26;3.40;81.60
9820;DHT22;4949;48.482;9.206;2023-02-05T03:40:45;3.40;81.60
9820;DHT22;4949;48.482;9.206;2023-02-05T03:46:12;3.50;82.00
9820;DHT22;4949;48.482;9.206;2023-02-05T03:51:43;3.30;81.70
9820;DHT22;4949;48.482;9.206;2023-02-05T03:57:08;3.40;81.90
9820;DHT22;4949;48.482;9.206;2023-02-05T04:02:30;3.40;81.90
9820;DHT22;4949;48.482;9.206;2023-02-05T04:07:30;3.30;82.00
9820;DHT22;4949;48.482;9.206;2023-02-05T04:12:31;3.20;82.60
9820;DHT22;4949;48.482;9.206;2023-02-05T04:17:32;3.20;82.40
9820;DHT22;4949;48.482;9.206;2023-02-05T04:22:33;3.20;82.30
9820;DHT22;4949;48.482;9.206;2023-02-05T04:27:33;3.20;82.20
9820;DHT22;4949;48.482;9.206;2023-02-05T04:32:34;3.40;82.40
9820;DHT22;4949;48.482;9.206;2023-02-05T04:37:35;3.20;82.00
9820;DHT22;4949;48.482;9.206;2023-02-05T04:42:35;3.20;82.00
9820;DHT22;4949;48.482;9.206;2023-02-05T04:47:36;3.10;82.10
9820;DHT22;4949;48.482;9.206;2023-02-05T04:52:37;3.10;82.50
9820;DHT22;4949;48.482;9.206;2023-02-05T04:57:38;3.00;82.70
9820;DHT22;4949;48.482;9.206;2023-02-05T05:02:38;2.90;82.60
9820;DHT22;4949;48.482;9.206;2023-02-05T05:07:42;2.90;82.20
9820;DHT22;4949;48.482;9.206;2023-02-05T05:12:42;2.90;82.40
9820;DHT22;4949;48.482;9.206;2023-02-05T05:17:45;2.90;82.50
9820;DHT22;4949;48.482;9.206;2023-02-05T05:22:46;2.90;82.40
9820;DHT22;4949;48.482;9.206;2023-02-05T05:27:49;2.90;82.20
9820;DHT22;4949;48.482;9.206;2023-02-05T05:32:50;2.90;82.40
9820;DHT22;4949;48.482;9.206;2023-02-05T05:37:51;2.90;82.20
9820;DHT22;4949;48.482;9.206;2023-02-05T05:42:51;2.90;82.50
9820;DHT22;4949;48.482;9.206;2023-02-05T05:48:11;2.90;82.60
9820;DHT22;4949;48.482;9.206;2023-02-05T05:53:11;2.80;82.90
9820;DHT22;4949;48.482;9.206;2023-02-05T05:58:15;2.80;83.00
9820;DHT22;4949;48.482;9.206;2023-02-05T06:03:15;2.80;82.80
9820;DHT22;4949;48.482;9.206;2023-02-05T06:08:16;2.80;83.40
9820;DHT22;4949;48.482;9.206;2023-02-05T06:13:17;2.90;82.80
9820;DHT22;4949;48.482;9.206;2023-02-05T06:18:18;2.90;83.00
9820;DHT22;4949;48.482;9.206;2023-02-05T06:23:19;2.90;83.00
9820;DHT22;4949;48.482;9.206;2023-02-05T06:28:22;2.90;82.70
9820;DHT22;4949;48.482;9.206;2023-02-05T06:33:22;2.90;82.40
9820;DHT22;4949;48.482;9.206;2023-02-05T06:38:23;2.90;82.20
9820;DHT22;4949;48.482;9.206;2023-02-05T06:43:25;2.90;82.30
9820;DHT22;4949;48.482;9.206;2023-02-05T06:48:28;2.90;82.50
9820;DHT22;4949;48.482;9.206;2023-02-05T06:53:29;2.80;83.20
9820;DHT22;4949;48.482;9.206;2023-02-05T06:58:31;2.90;82.70
9820;DHT22;4949;48.482;9.206;2023-02-05T07:03:32;2.70;82.80
9820;DHT22;4949;48.482;9.206;2023-02-05T07:08:38;2.70;82.80
9820;DHT22;4949;48.482;9.206;2023-02-05T07:13:38;2.70;83.10
9820;DHT22;4949;48.482;9.206;2023-02-05T07:18:40;2.70;83.20
9820;DHT22;4949;48.482;9.206;2023-02-05T07:23:41;2.70;83.30
9820;DHT22;4949;48.482;9.206;2023-02-05T07:28:42;2.50;82.80
9820;DHT22;4949;48.482;9.206;2023-02-05T07:33:46;2.90;83.30
9820;DHT22;4949;48.482;9.206;2023-02-05T07:38:47;3.00;82.20
9820;DHT22;4949;48.482;9.206;2023-02-05T07:43:54;3.10;81.30
9820;DHT22;4949;48.482;9.206;2023-02-05T07:48:54;3.10;82.40
9820;DHT22;4949;48.482;9.206;2023-02-05T07:53:55;3.10;82.50
9820;DHT22;4949;48.482;9.206;2023-02-05T07:58:56;3.10;82.50
9820;DHT22;4949;48.482;9.206;2023-02-05T08:03:59;3.20;82.80
9820;DHT22;4949;48.482;9.206;2023-02-05T08:09:00;3.30;82.70
9820;DHT22;4949;48.482;9.206;2023-02-05T08:14:03;3.40;82.10
9820;DHT22;4949;48.482;9.206;2023-02-05T08:19:05;3.50;81.70
9820;DHT22;4949;48.482;9.206;2023-02-05T08:24:09;3.50;81.50
9820;DHT22;4949;48.482;9.206;2023-02-05T08:29:10;3.60;80.40
9820;DHT22;4949;48.482;9.206;2023-02-05T08:34:14;3.70;80.20
9820;DHT22;4949;48.482;9.206;2023-02-05T08:39:20;3.60;80.90
9820;DHT22;4949;48.482;9.206;2023-02-05T08:44:26;3.60;81.40
9820;DHT22;4949;48.482;9.206;2023-02-05T08:49:30;3.70;81.20
9820;DHT22;4949;48.482;9.206;2023-02-05T08:54:31;3.80;80.90
9820;DHT22;4949;48.482;9.206;2023-02-05T08:59:34;4.10;79.50
9820;DHT22;4949;48.482;9.206;2023-02-05T09:04:35;4.00;78.80
9820;DHT22;4949;48.482;9.206;2023-02-05T09:09:38;4.00;79.30
9820;DHT22;4949;48.482;9.206;2023-02-05T09:14:41;4.00;79.60
9820;DHT22;4949;48.482;9.206;2023-02-05T09:19:42;4.20;79.30
9820;DHT22;4949;48.482;9.206;2023-02-05T09:24:43;4.20;79.50
9820;DHT22;4949;48.482;9.206;2023-02-05T09:29:46;4.40;79.20
9820;DHT22;4949;48.482;9.206;2023-02-05T09:34:47;4.50;78.80
9820;DHT22;4949;48.482;9.206;2023-02-05T09:39:48;4.50;77.50
9820;DHT22;4949;48.482;9.206;2023-02-05T09:45:05;4.60;77.30
9820;DHT22;4949;48.482;9.206;2023-02-05T09:50:20;4.70;77.30
9820;DHT22;4949;48.482;9.206;2023-02-05T09:55:31;4.80;77.30
9820;DHT22;4949;48.482;9.206;2023-02-05T10:00:45;4.90;76.80
9820;DHT22;4949;48.482;9.206;2023-02-05T10:11:33;4.90;74.90
9820;DHT22;4949;48.482;9.206;2023-02-05T10:33:54;4.90;76.40
9820;DHT22;4949;48.482;9.206;2023-02-05T10:39:12;4.90;76.90
9820;DHT22;4949;48.482;9.206;2023-02-05T10:44:26;5.00;77.70
9820;DHT22;4949;48.482;9.206;2023-02-05T10:54:50;4.90;79.90
9820;DHT22;4949;48.482;9.206;2023-02-05T10:59:56;4.90;80.00
9820;DHT22;4949;48.482;9.206;2023-02-05T11:05:12;4.90;79.30
9820;DHT22;4949;48.482;9.206;2023-02-05T11:10:29;4.80;79.50
9820;DHT22;4949;48.482;9.206;2023-02-05T11:15:32;4.70;79.70
9820;DHT22;4949;48.482;9.206;2023-02-05T11:20:39;4.60;82.00
9820;DHT22;4949;48.482;9.206;2023-02-05T11:25:52;4.70;82.50
9820;DHT22;4949;48.482;9.206;2023-02-05T11:36:25;4.70;84.50
9820;DHT22;4949;48.482;9.206;2023-02-05T11:41:35;4.90;84.10
9820;DHT22;4949;48.482;9.206;2023-02-05T11:46:54;4.90;84.10
9820;DHT22;4949;48.482;9.206;2023-02-05T11:51:59;4.90;83.50
9820;DHT22;4949;48.482;9.206;2023-02-05T12:02:39;4.80;82.20
9820;DHT22;4949;48.482;9.206;2023-02-05T12:18:21;4.90;82.50
9820;DHT22;4949;48.482;9.206;2023-02-05T12:34:38;4.80;83.00
9820;DHT22;4949;48.482;9.206;2023-02-05T12:56:27;4.80;83.20
9820;DHT22;4949;48.482;9.206;2023-02-05T13:01:47;4.80;82.60
9820;DHT22;4949;48.482;9.206;2023-02-05T13:07:12;4.80;83.20
9820;DHT22;4949;48.482;9.206;2023-02-05T13:12:18;4.90;82.90
9820;DHT22;4949;48.482;9.206;2023-02-05T13:17:28;4.80;82.90
9820;DHT22;4949;48.482;9.206;2023-02-05T13:22:37;4.80;83.40
9820;DHT22;4949;48.482;9.206;2023-02-05T13:28:05;4.70;83.50
9820;DHT22;4949;48.482;9.206;2023-02-05T13:33:42;4.60;83.80
9820;DHT22;4949;48.482;9.206;2023-02-05T14:00:42;4.60;84.30
9820;DHT22;4949;48.482;9.206;2023-02-05T14:05:43;4.60;83.70
9820;DHT22;4949;48.482;9.206;2023-02-05T14:10:44;4.60;83.70
9820;DHT22;4949;48.482;9.206;2023-02-05T14:15:46;4.50;83.80
9820;DHT22;4949;48.482;9.206;2023-02-05T14:20:46;4.60;83.80
9820;DHT22;4949;48.482;9.206;2023-02-05T14:31:03;4.60;83.60
9820;DHT22;4949;48.482;9.206;2023-02-05T14:41:18;4.60;83.40
9820;DHT22;4949;48.482;9.206;2023-02-05T14:51:40;4.70;83.30
9820;DHT22;4949;48.482;9.206;2023-02-05T14:57:07;4.70;83.60
9820;DHT22;4949;48.482;9.206;2023-02-05T15:13:18;4.60;83.10
9820;DHT22;4949;48.482;9.206;2023-02-05T15:18:23;4.60;83.20
9820;DHT22;4949;48.482;9.206;2023-02-05T15:29:29;4.50;82.50
9820;DHT22;4949;48.482;9.206;2023-02-05T15:34:41;4.40;82.30
9820;DHT22;4949;48.482;9.206;2023-02-05T15:39:58;4.30;82.70
9820;DHT22;4949;48.482;9.206;2023-02-05T15:45:24;4.60;83.20
9820;DHT22;4949;48.482;9.206;2023-02-05T15:50:34;4.30;83.10
9820;DHT22;4949;48.482;9.206;2023-02-05T15:56:28;4.20;83.20
9820;DHT22;4949;48.482;9.206;2023-02-05T16:01:48;4.20;82.90
9820;DHT22;4949;48.482;9.206;2023-02-05T16:06:53;4.10;82.80
9820;DHT22;4949;48.482;9.206;2023-02-05T16:11:54;4.20;83.50
9820;DHT22;4949;48.482;9.206;2023-02-05T16:27:46;4.10;83.30
9820;DHT22;4949;48.482;9.206;2023-02-05T16:32:52;4.10;83.20
9820;DHT22;4949;48.482;9.206;2023-02-05T16:37:58;4.10;83.00
9820;DHT22;4949;48.482;9.206;2023-02-05T16:48:58;4.00;83.30
9820;DHT22;4949;48.482;9.206;2023-02-05T16:59:22;3.80;83.20
9820;DHT22;4949;48.482;9.206;2023-02-05T17:04:35;3.70;83.30
9820;DHT22;4949;48.482;9.206;2023-02-05T17:09:38;3.90;83.70
9820;DHT22;4949;48.482;9.206;2023-02-05T17:25:09;3.50;83.50
9820;DHT22;4949;48.482;9.206;2023-02-05T17:30:17;3.50;84.00
9820;DHT22;4949;48.482;9.206;2023-02-05T17:35:19;3.50;83.70
9820;DHT22;4949;48.482;9.206;2023-02-05T17:40:26;3.50;83.80
9820;DHT22;4949;48.482;9.206;2023-02-05T17:45:32;3.40;83.80
9820;DHT22;4949;48.482;9.206;2023-02-05T17:50:35;3.30;84.20
9820;DHT22;4949;48.482;9.206;2023-02-05T17:55:36;3.30;84.80
9820;DHT22;4949;48.482;9.206;2023-02-05T18:00:40;3.40;84.60
9820;DHT22;4949;48.482;9.206;2023-02-05T18:05:43;3.40;84.70
9820;DHT22;4949;48.482;9.206;2023-02-05T18:10:44;3.40;84.60
9820;DHT22;4949;48.482;9.206;2023-02-05T18:15:45;3.40;84.70
9820;DHT22;4949;48.482;9.206;2023-02-05T18:20:49;3.40;84.90
9820;DHT22;4949;48.482;9.206;2023-02-05T18:25:50;3.40;85.00
9820;DHT22;4949;48.482;9.206;2023-02-05T18:31:00;3.40;85.20
9820;DHT22;4949;48.482;9.206;2023-02-05T18:36:07;3.80;85.70
9820;DHT22;4949;48.482;9.206;2023-02-05T18:41:19;3.50;85.60
9820;DHT22;4949;48.482;9.206;2023-02-05T18:46:25;3.50;85.30
9820;DHT22;4949;48.482;9.206;2023-02-05T18:51:31;3.50;85.30
9820;DHT22;4949;48.482;9.206;2023-02-05T18:56:45;3.50;85.40
9820;DHT22;4949;48.482;9.206;2023-02-05T19:01:47;3.50;85.50
9820;DHT22;4949;48.482;9.206;2023-02-05T19:06:50;3.40;85.80
9820;DHT22;4949;48.482;9.206;2023-02-05T19:18:30;3.40;86.00
9820;DHT22;4949;48.482;9.206;2023-02-05T19:24:04;3.50;86.00
9820;DHT22;4949;48.482;9.206;2023-02-05T19:29:21;3.50;85.90
9820;DHT22;4949;48.482;9.206;2023-02-05T19:34:40;3.50;85.80
9820;DHT22;4949;48.482;9.206;2023-02-05T19:39:54;3.50;85.90
9820;DHT22;4949;48.482;9.206;2023-02-05T19:45:05;3.50;86.10
9820;DHT22;4949;48.482;9.206;2023-02-05T19:50:17;3.60;86.20
9820;DHT22;4949;48.482;9.206;2023-02-05T19:55:36;3.60;86.00
9820;DHT22;4949;48.482;9.206;2023-02-05T20:01:19;3.60;86.10
9820;DHT22;4949;48.482;9.206;2023-02-05T20:06:30;3.70;86.20
9820;DHT22;4949;48.482;9.206;2023-02-05T20:11:41;3.60;86.30
9820;DHT22;4949;48.482;9.206;2023-02-05T20:16:55;3.70;86.10
9820;DHT22;4949;48.482;9.206;2023-02-05T20:22:10;3.60;86.10
9820;DHT22;4949;48.482;9.206;2023-02-05T20:27:25;3.60;86.00
9820;DHT22;4949;48.482;9.206;2023-02-05T20:32:29;3.60;85.90
9820;DHT22;4949;48.482;9.206;2023-02-05T20:37:33;3.60;86.20
9820;DHT22;4949;48.482;9.206;2023-02-05T20:42:36;3.60;86.20
9820;DHT22;4949;48.482;9.206;2023-02-05T20:47:36;3.70;86.40
9820;DHT22;4949;48.482;9.206;2023-02-05T20:52:40;3.80;86.00
9820;DHT22;4949;48.482;9.206;2023-02-05T20:57:43;3.80;86.20
9820;DHT22;4949;48.482;9.206;2023-02-05T21:02:45;3.80;86.20
9820;DHT22;4949;48.482;9.206;2023-02-05T21:07:45;3.80;86.40
9820;DHT22;4949;48.482;9.206;2023-02-05T21:12:52;3.90;85.90
9820;DHT22;4949;48.482;9.206;2023-02-05T21:17:53;4.00;86.20
9820;DHT22;4949;48.482;9.206;2023-02-05T21:22:54;3.90;86.10
9820;DHT22;4949;48.482;9.206;2023-02-05T21:27:56;3.90;85.10
9820;DHT22;4949;48.482;9.206;2023-02-05T21:32:57;4.00;84.80
9820;DHT22;4949;48.482;9.206;2023-02-05T21:38:00;4.20;84.00
9820;DHT22;4949;48.482;9.206;2023-02-05T21:43:00;4.20;83.90
9820;DHT22;4949;48.482;9.206;2023-02-05T21:48:04;4.00;83.70
9820;DHT22;4949;48.482;9.206;2023-02-05T21:53:05;3.90;84.10
9820;DHT22;4949;48.482;9.206;2023-02-05T21:58:06;3.90;84.60
9820;DHT22;4949;48.482;9.206;2023-02-05T22:03:06;3.90;84.80
9820;DHT22;4949;48.482;9.206;2023-02-05T22:08:07;4.20;85.10
9820;DHT22;4949;48.482;9.206;2023-02-05T22:13:12;3.90;84.30
9820;DHT22;4949;48.482;9.206;2023-02-05T22:18:13;3.90;83.80
9820;DHT22;4949;48.482;9.206;2023-02-05T22:23:16;3.90;84.00
9820;DHT22;4949;48.482;9.206;2023-02-05T22:28:17;4.00;83.50
9820;DHT22;4949;48.482;9.206;2023-02-05T22:33:17;3.90;83.30
9820;DHT22;4949;48.482;9.206;2023-02-05T22:38:18;4.00;83.30
9820;DHT22;4949;48.482;9.206;2023-02-05T22:43:21;3.90;83.00
9820;DHT22;4949;48.482;9.206;2023-02-05T22:48:22;4.10;82.30
9820;DHT22;4949;48.482;9.206;2023-02-05T22:53:25;3.90;83.10
9820;DHT22;4949;48.482;9.206;2023-02-05T22:58:25;3.90;82.30
9820;DHT22;4949;48.482;9.206;2023-02-05T23:03:26;3.90;82.90
9820;DHT22;4949;48.482;9.206;2023-02-05T23:08:27;3.80;83.70
9820;DHT22;4949;48.482;9.206;2023-02-05T23:13:33;3.80;83.60
9820;DHT22;4949;48.482;9.206;2023-02-05T23:18:39;3.90;83.10
9820;DHT22;4949;48.482;9.206;2023-02-05T23:23:41;3.90;82.10
9820;DHT22;4949;48.482;9.206;2023-02-05T23:28:44;3.90;82.20
9820;DHT22;4949;48.482;9.206;2023-02-05T23:33:45;3.80;83.50
9820;DHT22;4949;48.482;9.206;2023-02-05T23:38:49;3.70;83.10
9820;DHT22;4949;48.482;9.206;2023-02-05T23:43:50;3.80;83.10
9820;DHT22;4949;48.482;9.206;2023-02-05T23:48:52;3.90;83.10
9820;DHT22;4949;48.482;9.206;2023-02-05T23:53:56;3.70;83.20
9820;DHT22;4949;48.482;9.206;2023-02-05T23:58:59;3.80;83.20
